sensor_id;sensor_type;location;lat;lon;timestamp;temperature;humidity
7129;DHT22;3606;52.930;8.644;2022-07-04T00:02:25;12.60;99.90
7129;DHT22;3606;52.930;8.644;2022-07-04T00:04:50;12.50;99.90
7129;DHT22;3606;52.930;8.644;2022-07-04T00:07:16;12.50;99.90
7129;DHT22;3606;52.930;8.644;2022-07-04T00:09:42;12.50;99.90
7129;DHT22;3606;52.930;8.644;2022-07-04T00:12:08;12.50;99.90
7129;DHT22;3606;52.930;8.644;2022-07-04T00:14:33;12.50;99.90
7129;DHT22;3606;52.930;8.644;2022-07-04T00:16:59;12.50;99.90
7129;DHT22;3606;52.930;8.644;2022-07-04T00:19:25;12.50;99.90
7129;DHT22;3606;52.930;8.644;2022-07-04T00:21:50;12.60;99.90
7129;DHT22;3606;52.930;8.644;2022-07-04T00:24:16;12.60;99.90
7129;DHT22;3606;52.930;8.644;2022-07-04T00:26:41;12.70;99.90
7129;DHT22;3606;52.930;8.644;2022-07-04T00:29:07;12.60;99.90
7129;DHT22;3606;52.930;8.644;2022-07-04T00:31:32;12.60;99.90
7129;DHT22;3606;52.930;8.644;2022-07-04T00:33:59;12.50;99.90
7129;DHT22;3606;52.930;8.644;2022-07-04T00:36:25;12.60;99.90
7129;DHT22;3606;52.930;8.644;2022-07-04T00:38:50;12.60;99.90
7129;DHT22;3606;52.930;8.644;2022-07-04T00:41:16;12.60;99.90
7129;DHT22;3606;52.930;8.644;2022-07-04T00:43:42;12.50;99.90
7129;DHT22;3606;52.930;8.644;2022-07-04T00:46:08;12.60;99.90
7129;DHT22;3606;52.930;8.644;2022-07-04T00:48:33;12.60;99.90
7129;DHT22;3606;52.930;8.644;2022-07-04T00:51:00;12.60;99.90
7129;DHT22;3606;52.930;8.644;2022-07-04T00:53:26;12.60;99.90
7129;DHT22;3606;52.930;8.644;2022-07-04T00:55:52;12.50;99.90
7129;DHT22;3606;52.930;8.644;2022-07-04T00:58:23;12.50;99.90
7129;DHT22;3606;52.930;8.644;2022-07-04T01:00:49;12.50;99.90
7129;DHT22;3606;52.930;8.644;2022-07-04T01:03:15;12.50;99.90
7129;DHT22;3606;52.930;8.644;2022-07-04T01:05:42;12.50;99.90
7129;DHT22;3606;52.930;8.644;2022-07-04T01:08:08;12.40;99.90
7129;DHT22;3606;52.930;8.644;2022-07-04T01:10:35;12.40;99.90
7129;DHT22;3606;52.930;8.644;2022-07-04T01:13:00;12.40;99.90
7129;DHT22;3606;52.930;8.644;2022-07-04T01:15:26;12.40;99.90
7129;DHT22;3606;52.930;8.644;2022-07-04T01:17:51;12.30;99.90
7129;DHT22;3606;52.930;8.644;2022-07-04T01:20:17;12.30;99.90
7129;DHT22;3606;52.930;8.644;2022-07-04T01:22:43;12.30;99.90
7129;DHT22;3606;52.930;8.644;2022-07-04T01:25:09;12.20;99.90
7129;DHT22;3606;52.930;8.644;2022-07-04T01:27:35;12.20;99.90
7129;DHT22;3606;52.930;8.644;2022-07-04T01:30:00;12.20;99.90
7129;DHT22;3606;52.930;8.644;2022-07-04T01:32:26;12.10;99.90
7129;DHT22;3606;52.930;8.644;2022-07-04T01:34:52;12.10;99.90
7129;DHT22;3606;52.930;8.644;2022-07-04T01:37:17;12.20;99.90
7129;DHT22;3606;52.930;8.644;2022-07-04T01:39:43;12.20;99.90
7129;DHT22;3606;52.930;8.644;2022-07-04T01:42:09;12.20;99.90
7129;DHT22;3606;52.930;8.644;2022-07-04T01:44:34;12.20;99.90
7129;DHT22;3606;52.930;8.644;2022-07-04T01:47:00;12.30;99.90
7129;DHT22;3606;52.930;8.644;2022-07-04T01:49:26;12.30;99.90
7129;DHT22;3606;52.930;8.644;2022-07-04T01:51:52;12.20;99.90
7129;DHT22;3606;52.930;8.644;2022-07-04T01:54:18;12.20;99.90
7129;DHT22;3606;52.930;8.644;2022-07-04T01:56:44;12.20;99.90
7129;DHT22;3606;52.930;8.644;2022-07-04T01:59:10;12.20;99.90
7129;DHT22;3606;52.930;8.644;2022-07-04T02:01:36;12.20;99.90
7129;DHT22;3606;52.930;8.644;2022-07-04T02:04:04;12.20;99.90
7129;DHT22;3606;52.930;8.644;2022-07-04T02:06:30;12.20;99.90
7129;DHT22;3606;52.930;8.644;2022-07-04T02:08:56;12.20;99.90
7129;DHT22;3606;52.930;8.644;2022-07-04T02:11:41;12.20;99.90
7129;DHT22;3606;52.930;8.644;2022-07-04T02:14:25;12.20;99.90
7129;DHT22;3606;52.930;8.644;2022-07-04T02:16:51;12.20;99.90
7129;DHT22;3606;52.930;8.644;2022-07-04T02:19:17;12.30;99.90
7129;DHT22;3606;52.930;8.644;2022-07-04T02:21:43;12.20;99.90
7129;DHT22;3606;52.930;8.644;2022-07-04T02:24:09;12.10;99.90
7129;DHT22;3606;52.930;8.644;2022-07-04T02:26:35;12.10;99.90
7129;DHT22;3606;52.930;8.644;2022-07-04T02:29:01;12.10;99.90
7129;DHT22;3606;52.930;8.644;2022-07-04T02:31:26;12.10;99.90
7129;DHT22;3606;52.930;8.644;2022-07-04T02:33:52;12.00;99.90
7129;DHT22;3606;52.930;8.644;2022-07-04T02:36:18;12.00;99.90
7129;DHT22;3606;52.930;8.644;2022-07-04T02:38:43;12.00;99.90
7129;DHT22;3606;52.930;8.644;2022-07-04T02:41:09;12.00;99.90
7129;DHT22;3606;52.930;8.644;2022-07-04T02:43:34;12.00;99.90
7129;DHT22;3606;52.930;8.644;2022-07-04T02:46:00;12.00;99.90
7129;DHT22;3606;52.930;8.644;2022-07-04T02:48:25;12.00;99.90
7129;DHT22;3606;52.930;8.644;2022-07-04T02:50:51;12.00;99.90
7129;DHT22;3606;52.930;8.644;2022-07-04T02:53:16;11.80;99.90
7129;DHT22;3606;52.930;8.644;2022-07-04T02:55:42;11.80;99.90
7129;DHT22;3606;52.930;8.644;2022-07-04T02:58:08;11.80;99.90
7129;DHT22;3606;52.930;8.644;2022-07-04T03:00:33;11.80;99.90
7129;DHT22;3606;52.930;8.644;2022-07-04T03:02:59;11.80;99.90
7129;DHT22;3606;52.930;8.644;2022-07-04T03:05:24;11.70;99.90
7129;DHT22;3606;52.930;8.644;2022-07-04T03:07:50;11.70;99.90
7129;DHT22;3606;52.930;8.644;2022-07-04T03:10:16;11.70;99.90
7129;DHT22;3606;52.930;8.644;2022-07-04T03:12:41;11.60;99.90
7129;DHT22;3606;52.930;8.644;2022-07-04T03:15:07;11.60;99.90
7129;DHT22;3606;52.930;8.644;2022-07-04T03:17:32;11.60;99.90
7129;DHT22;3606;52.930;8.644;2022-07-04T03:19:58;11.60;99.90
7129;DHT22;3606;52.930;8.644;2022-07-04T03:22:24;11.50;99.90
7129;DHT22;3606;52.930;8.644;2022-07-04T03:24:50;11.50;99.90
7129;DHT22;3606;52.930;8.644;2022-07-04T03:27:15;11.50;99.90
7129;DHT22;3606;52.930;8.644;2022-07-04T03:29:41;11.50;99.90
7129;DHT22;3606;52.930;8.644;2022-07-04T03:32:07;11.50;99.90
7129;DHT22;3606;52.930;8.644;2022-07-04T03:34:33;11.50;99.90
7129;DHT22;3606;52.930;8.644;2022-07-04T03:36:58;11.60;99.90
7129;DHT22;3606;52.930;8.644;2022-07-04T03:39:24;11.60;99.90
7129;DHT22;3606;52.930;8.644;2022-07-04T03:41:49;11.50;99.90
7129;DHT22;3606;52.930;8.644;2022-07-04T03:44:15;11.60;99.90
7129;DHT22;3606;52.930;8.644;2022-07-04T03:46:41;11.50;99.90
7129;DHT22;3606;52.930;8.644;2022-07-04T03:49:06;11.50;99.90
7129;DHT22;3606;52.930;8.644;2022-07-04T03:51:32;11.50;99.90
7129;DHT22;3606;52.930;8.644;2022-07-04T03:53:58;11.50;99.90
7129;DHT22;3606;52.930;8.644;2022-07-04T03:56:23;11.50;99.90
7129;DHT22;3606;52.930;8.644;2022-07-04T03:58:49;11.50;99.90
7129;DHT22;3606;52.930;8.644;2022-07-04T04:01:18;11.50;99.90
7129;DHT22;3606;52.930;8.644;2022-07-04T04:03:45;11.50;99.90
7129;DHT22;3606;52.930;8.644;2022-07-04T04:06:29;11.50;99.90
7129;DHT22;3606;52.930;8.644;2022-07-04T04:08:56;11.60;99.90
7129;DHT22;3606;52.930;8.644;2022-07-04T04:11:22;11.60;99.90
7129;DHT22;3606;52.930;8.644;2022-07-04T04:13:48;11.70;99.90
7129;DHT22;3606;52.930;8.644;2022-07-04T04:16:13;11.70;99.90
7129;DHT22;3606;52.930;8.644;2022-07-04T04:18:39;11.60;99.90
7129;DHT22;3606;52.930;8.644;2022-07-04T04:21:05;11.70;99.90
7129;DHT22;3606;52.930;8.644;2022-07-04T04:23:31;11.80;99.90
7129;DHT22;3606;52.930;8.644;2022-07-04T04:25:56;11.80;99.90
7129;DHT22;3606;52.930;8.644;2022-07-04T04:28:22;11.80;99.90
7129;DHT22;3606;52.930;8.644;2022-07-04T04:30:49;11.90;99.90
7129;DHT22;3606;52.930;8.644;2022-07-04T04:33:15;12.00;99.90
7129;DHT22;3606;52.930;8.644;2022-07-04T04:35:41;12.10;99.90
7129;DHT22;3606;52.930;8.644;2022-07-04T04:38:06;12.10;99.90
7129;DHT22;3606;52.930;8.644;2022-07-04T04:40:32;12.20;99.90
7129;DHT22;3606;52.930;8.644;2022-07-04T04:42:57;12.40;99.90
7129;DHT22;3606;52.930;8.644;2022-07-04T04:45:23;12.40;99.90
7129;DHT22;3606;52.930;8.644;2022-07-04T04:47:48;12.60;99.90
7129;DHT22;3606;52.930;8.644;2022-07-04T04:50:14;12.70;99.90
7129;DHT22;3606;52.930;8.644;2022-07-04T04:52:43;13.00;99.90
7129;DHT22;3606;52.930;8.644;2022-07-04T04:55:09;13.60;99.90
7129;DHT22;3606;52.930;8.644;2022-07-04T04:57:34;14.10;99.90
7129;DHT22;3606;52.930;8.644;2022-07-04T05:00:01;14.30;99.90
7129;DHT22;3606;52.930;8.644;2022-07-04T05:02:27;14.30;99.90
7129;DHT22;3606;52.930;8.644;2022-07-04T05:04:53;14.20;99.90
7129;DHT22;3606;52.930;8.644;2022-07-04T05:07:19;14.20;99.90
7129;DHT22;3606;52.930;8.644;2022-07-04T05:09:44;14.30;99.90
7129;DHT22;3606;52.930;8.644;2022-07-04T05:12:10;14.50;99.90
7129;DHT22;3606;52.930;8.644;2022-07-04T05:14:36;14.90;99.90
7129;DHT22;3606;52.930;8.644;2022-07-04T05:17:02;15.50;99.90
7129;DHT22;3606;52.930;8.644;2022-07-04T05:19:27;16.10;74.10
7129;DHT22;3606;52.930;8.644;2022-07-04T05:21:53;16.50;68.60
7129;DHT22;3606;52.930;8.644;2022-07-04T05:24:19;17.00;1.00
7129;DHT22;3606;52.930;8.644;2022-07-04T05:26:44;17.20;99.90
7129;DHT22;3606;52.930;8.644;2022-07-04T05:29:10;17.30;46.60
7129;DHT22;3606;52.930;8.644;2022-07-04T05:31:36;17.40;1.00
7129;DHT22;3606;52.930;8.644;2022-07-04T05:34:01;17.60;99.90
7129;DHT22;3606;52.930;8.644;2022-07-04T05:36:27;17.90;99.90
7129;DHT22;3606;52.930;8.644;2022-07-04T05:38:53;18.30;99.90
7129;DHT22;3606;52.930;8.644;2022-07-04T05:41:19;18.50;63.00
7129;DHT22;3606;52.930;8.644;2022-07-04T05:43:44;18.60;1.00
7129;DHT22;3606;52.930;8.644;2022-07-04T05:46:10;18.80;1.00
7129;DHT22;3606;52.930;8.644;2022-07-04T05:48:36;19.10;99.90
7129;DHT22;3606;52.930;8.644;2022-07-04T05:51:04;19.30;22.90
7129;DHT22;3606;52.930;8.644;2022-07-04T05:53:30;19.40;1.00
7129;DHT22;3606;52.930;8.644;2022-07-04T05:55:55;19.50;99.90
7129;DHT22;3606;52.930;8.644;2022-07-04T05:58:21;19.50;99.90
7129;DHT22;3606;52.930;8.644;2022-07-04T06:00:46;19.70;99.90
7129;DHT22;3606;52.930;8.644;2022-07-04T06:03:12;19.70;14.90
7129;DHT22;3606;52.930;8.644;2022-07-04T06:05:37;19.70;99.90
7129;DHT22;3606;52.930;8.644;2022-07-04T06:08:03;19.90;1.00
7129;DHT22;3606;52.930;8.644;2022-07-04T06:10:29;20.20;1.00
7129;DHT22;3606;52.930;8.644;2022-07-04T06:12:55;20.00;1.00
7129;DHT22;3606;52.930;8.644;2022-07-04T06:15:21;20.00;1.00
7129;DHT22;3606;52.930;8.644;2022-07-04T06:17:47;20.10;1.00
7129;DHT22;3606;52.930;8.644;2022-07-04T06:20:12;20.30;1.00
7129;DHT22;3606;52.930;8.644;2022-07-04T06:22:43;20.40;1.00
7129;DHT22;3606;52.930;8.644;2022-07-04T06:25:19;20.50;1.00
7129;DHT22;3606;52.930;8.644;2022-07-04T06:27:47;20.60;1.00
7129;DHT22;3606;52.930;8.644;2022-07-04T06:30:13;20.90;99.90
7129;DHT22;3606;52.930;8.644;2022-07-04T06:32:47;21.00;99.90
7129;DHT22;3606;52.930;8.644;2022-07-04T06:35:14;20.90;99.90
7129;DHT22;3606;52.930;8.644;2022-07-04T06:37:58;20.80;99.90
7129;DHT22;3606;52.930;8.644;2022-07-04T06:40:24;21.20;99.90
7129;DHT22;3606;52.930;8.644;2022-07-04T06:42:50;21.20;99.90
7129;DHT22;3606;52.930;8.644;2022-07-04T06:45:16;22.00;99.90
7129;DHT22;3606;52.930;8.644;2022-07-04T06:47:42;22.20;1.00
7129;DHT22;3606;52.930;8.644;2022-07-04T06:50:08;21.90;1.00
7129;DHT22;3606;52.930;8.644;2022-07-04T06:52:34;21.90;1.00
7129;DHT22;3606;52.930;8.644;2022-07-04T06:55:00;21.70;1.00
7129;DHT22;3606;52.930;8.644;2022-07-04T06:57:26;21.50;1.00
7129;DHT22;3606;52.930;8.644;2022-07-04T06:59:52;21.30;1.00
7129;DHT22;3606;52.930;8.644;2022-07-04T07:02:18;21.40;1.00
7129;DHT22;3606;52.930;8.644;2022-07-04T07:04:43;21.50;1.00
7129;DHT22;3606;52.930;8.644;2022-07-04T07:07:09;21.90;1.00
7129;DHT22;3606;52.930;8.644;2022-07-04T07:09:35;21.90;1.00
7129;DHT22;3606;52.930;8.644;2022-07-04T07:12:01;22.30;1.00
7129;DHT22;3606;52.930;8.644;2022-07-04T07:14:27;22.20;99.90
7129;DHT22;3606;52.930;8.644;2022-07-04T07:16:52;22.30;99.90
7129;DHT22;3606;52.930;8.644;2022-07-04T07:19:18;22.20;99.90
7129;DHT22;3606;52.930;8.644;2022-07-04T07:21:43;22.40;99.90
7129;DHT22;3606;52.930;8.644;2022-07-04T07:24:09;22.70;99.90
7129;DHT22;3606;52.930;8.644;2022-07-04T07:26:34;22.60;99.90
7129;DHT22;3606;52.930;8.644;2022-07-04T07:29:00;22.70;99.90
7129;DHT22;3606;52.930;8.644;2022-07-04T07:31:26;23.10;99.90
7129;DHT22;3606;52.930;8.644;2022-07-04T07:33:51;23.50;99.90
7129;DHT22;3606;52.930;8.644;2022-07-04T07:36:17;23.30;99.90
7129;DHT22;3606;52.930;8.644;2022-07-04T07:38:43;23.20;99.90
7129;DHT22;3606;52.930;8.644;2022-07-04T07:41:11;23.80;99.90
7129;DHT22;3606;52.930;8.644;2022-07-04T07:43:37;23.70;99.90
7129;DHT22;3606;52.930;8.644;2022-07-04T07:46:07;24.00;6.00
7129;DHT22;3606;52.930;8.644;2022-07-04T07:48:33;24.10;1.00
7129;DHT22;3606;52.930;8.644;2022-07-04T07:50:59;24.20;1.00
7129;DHT22;3606;52.930;8.644;2022-07-04T07:53:25;24.10;1.00
7129;DHT22;3606;52.930;8.644;2022-07-04T07:55:50;24.50;1.00
7129;DHT22;3606;52.930;8.644;2022-07-04T07:58:16;24.70;1.00
7129;DHT22;3606;52.930;8.644;2022-07-04T08:00:42;24.90;1.00
7129;DHT22;3606;52.930;8.644;2022-07-04T08:03:08;25.30;1.00
7129;DHT22;3606;52.930;8.644;2022-07-04T08:05:52;25.30;1.00
7129;DHT22;3606;52.930;8.644;2022-07-04T08:08:17;25.00;1.00
7129;DHT22;3606;52.930;8.644;2022-07-04T08:10:43;25.10;1.00
7129;DHT22;3606;52.930;8.644;2022-07-04T08:13:09;25.20;1.00
7129;DHT22;3606;52.930;8.644;2022-07-04T08:15:35;25.00;1.00
7129;DHT22;3606;52.930;8.644;2022-07-04T08:18:01;25.50;1.00
7129;DHT22;3606;52.930;8.644;2022-07-04T08:20:27;25.90;1.00
7129;DHT22;3606;52.930;8.644;2022-07-04T08:22:52;26.10;1.00
7129;DHT22;3606;52.930;8.644;2022-07-04T08:25:18;25.90;1.00
7129;DHT22;3606;52.930;8.644;2022-07-04T08:27:44;25.60;1.00
7129;DHT22;3606;52.930;8.644;2022-07-04T08:30:10;25.10;1.00
7129;DHT22;3606;52.930;8.644;2022-07-04T08:32:35;24.40;1.00
7129;DHT22;3606;52.930;8.644;2022-07-04T08:35:02;24.70;1.00
7129;DHT22;3606;52.930;8.644;2022-07-04T08:37:28;24.90;1.00
7129;DHT22;3606;52.930;8.644;2022-07-04T08:39:54;25.10;1.00
7129;DHT22;3606;52.930;8.644;2022-07-04T08:42:21;25.70;1.00
7129;DHT22;3606;52.930;8.644;2022-07-04T08:44:51;26.80;1.00
7129;DHT22;3606;52.930;8.644;2022-07-04T08:47:20;27.30;1.00
7129;DHT22;3606;52.930;8.644;2022-07-04T08:52:42;27.70;1.00
7129;DHT22;3606;52.930;8.644;2022-07-04T08:55:10;27.80;1.00
7129;DHT22;3606;52.930;8.644;2022-07-04T08:57:56;27.40;1.00
7129;DHT22;3606;52.930;8.644;2022-07-04T09:00:41;26.20;1.00
7129;DHT22;3606;52.930;8.644;2022-07-04T09:03:08;25.80;1.00
7129;DHT22;3606;52.930;8.644;2022-07-04T09:05:34;25.50;1.00
7129;DHT22;3606;52.930;8.644;2022-07-04T09:08:01;25.20;1.00
7129;DHT22;3606;52.930;8.644;2022-07-04T09:10:26;25.80;1.00
7129;DHT22;3606;52.930;8.644;2022-07-04T09:12:53;25.70;1.00
7129;DHT22;3606;52.930;8.644;2022-07-04T09:15:19;25.30;1.00
7129;DHT22;3606;52.930;8.644;2022-07-04T09:17:46;25.50;1.00
7129;DHT22;3606;52.930;8.644;2022-07-04T09:20:15;26.30;1.00
7129;DHT22;3606;52.930;8.644;2022-07-04T09:22:42;27.10;1.00
7129;DHT22;3606;52.930;8.644;2022-07-04T09:25:08;28.00;1.00
7129;DHT22;3606;52.930;8.644;2022-07-04T09:27:36;28.00;99.90
7129;DHT22;3606;52.930;8.644;2022-07-04T09:30:04;26.60;1.00
7129;DHT22;3606;52.930;8.644;2022-07-04T09:32:50;25.40;1.00
7129;DHT22;3606;52.930;8.644;2022-07-04T09:35:24;25.70;1.00
7129;DHT22;3606;52.930;8.644;2022-07-04T09:37:52;26.20;1.00
7129;DHT22;3606;52.930;8.644;2022-07-04T09:42:57;27.30;1.00
7129;DHT22;3606;52.930;8.644;2022-07-04T09:45:23;28.20;99.90
7129;DHT22;3606;52.930;8.644;2022-07-04T09:47:52;27.40;99.90
7129;DHT22;3606;52.930;8.644;2022-07-04T09:50:22;27.30;99.90
7129;DHT22;3606;52.930;8.644;2022-07-04T09:52:52;28.10;99.90
7129;DHT22;3606;52.930;8.644;2022-07-04T09:55:29;28.90;99.90
7129;DHT22;3606;52.930;8.644;2022-07-04T09:57:57;29.20;99.90
7129;DHT22;3606;52.930;8.644;2022-07-04T10:00:35;29.50;99.90
7129;DHT22;3606;52.930;8.644;2022-07-04T10:03:23;30.00;99.90
7129;DHT22;3606;52.930;8.644;2022-07-04T10:06:13;30.10;99.90
7129;DHT22;3606;52.930;8.644;2022-07-04T10:08:42;29.00;99.90
7129;DHT22;3606;52.930;8.644;2022-07-04T10:11:09;28.40;99.90
7129;DHT22;3606;52.930;8.644;2022-07-04T10:13:35;29.40;99.90
7129;DHT22;3606;52.930;8.644;2022-07-04T10:16:01;30.60;99.90
7129;DHT22;3606;52.930;8.644;2022-07-04T10:18:27;31.00;99.90
7129;DHT22;3606;52.930;8.644;2022-07-04T10:20:54;30.40;99.90
7129;DHT22;3606;52.930;8.644;2022-07-04T10:23:21;29.90;99.90
7129;DHT22;3606;52.930;8.644;2022-07-04T10:25:48;29.60;99.90
7129;DHT22;3606;52.930;8.644;2022-07-04T10:28:15;30.00;99.90
7129;DHT22;3606;52.930;8.644;2022-07-04T10:30:41;29.30;99.90
7129;DHT22;3606;52.930;8.644;2022-07-04T10:33:09;29.20;99.90
7129;DHT22;3606;52.930;8.644;2022-07-04T10:38:25;27.30;99.90
7129;DHT22;3606;52.930;8.644;2022-07-04T10:48:35;29.40;99.90
7129;DHT22;3606;52.930;8.644;2022-07-04T10:51:06;29.80;99.90
7129;DHT22;3606;52.930;8.644;2022-07-04T10:53:33;29.80;99.90
7129;DHT22;3606;52.930;8.644;2022-07-04T10:58:44;30.10;99.90
7129;DHT22;3606;52.930;8.644;2022-07-04T11:01:13;30.10;99.90
7129;DHT22;3606;52.930;8.644;2022-07-04T11:03:53;30.20;99.90
7129;DHT22;3606;52.930;8.644;2022-07-04T11:09:16;31.90;99.90
7129;DHT22;3606;52.930;8.644;2022-07-04T11:11:57;31.70;99.90
7129;DHT22;3606;52.930;8.644;2022-07-04T11:16:56;31.10;99.90
7129;DHT22;3606;52.930;8.644;2022-07-04T11:19:22;30.90;99.90
7129;DHT22;3606;52.930;8.644;2022-07-04T11:21:48;30.30;99.90
7129;DHT22;3606;52.930;8.644;2022-07-04T11:24:13;30.00;99.90
7129;DHT22;3606;52.930;8.644;2022-07-04T11:26:39;29.10;99.90
7129;DHT22;3606;52.930;8.644;2022-07-04T11:29:05;27.80;99.90
7129;DHT22;3606;52.930;8.644;2022-07-04T11:31:50;26.40;99.90
7129;DHT22;3606;52.930;8.644;2022-07-04T11:34:16;25.10;99.90
7129;DHT22;3606;52.930;8.644;2022-07-04T11:36:44;24.80;99.90
7129;DHT22;3606;52.930;8.644;2022-07-04T11:39:12;24.90;99.90
7129;DHT22;3606;52.930;8.644;2022-07-04T11:41:43;25.10;99.90
7129;DHT22;3606;52.930;8.644;2022-07-04T11:44:30;25.90;99.90
7129;DHT22;3606;52.930;8.644;2022-07-04T11:50:02;29.20;99.90
7129;DHT22;3606;52.930;8.644;2022-07-04T11:52:47;30.20;99.90
7129;DHT22;3606;52.930;8.644;2022-07-04T11:55:16;29.60;99.90
7129;DHT22;3606;52.930;8.644;2022-07-04T11:57:46;28.90;99.90
7129;DHT22;3606;52.930;8.644;2022-07-04T12:00:17;28.30;99.90
7129;DHT22;3606;52.930;8.644;2022-07-04T12:02:45;28.50;99.90
7129;DHT22;3606;52.930;8.644;2022-07-04T12:05:11;28.20;99.90
7129;DHT22;3606;52.930;8.644;2022-07-04T12:07:40;27.40;99.90
7129;DHT22;3606;52.930;8.644;2022-07-04T12:10:14;26.50;99.90
7129;DHT22;3606;52.930;8.644;2022-07-04T12:15:16;25.40;99.90
7129;DHT22;3606;52.930;8.644;2022-07-04T12:17:42;25.20;99.90
7129;DHT22;3606;52.930;8.644;2022-07-04T12:20:12;26.10;99.90
7129;DHT22;3606;52.930;8.644;2022-07-04T12:22:43;27.10;99.90
7129;DHT22;3606;52.930;8.644;2022-07-04T12:25:23;27.50;99.90
7129;DHT22;3606;52.930;8.644;2022-07-04T12:27:59;28.20;99.90
7129;DHT22;3606;52.930;8.644;2022-07-04T12:30:28;28.60;99.90
7129;DHT22;3606;52.930;8.644;2022-07-04T12:33:00;28.80;99.90
7129;DHT22;3606;52.930;8.644;2022-07-04T12:35:32;28.80;99.90
7129;DHT22;3606;52.930;8.644;2022-07-04T12:40:27;29.90;99.90
7129;DHT22;3606;52.930;8.644;2022-07-04T12:42:57;30.20;99.90
7129;DHT22;3606;52.930;8.644;2022-07-04T12:45:24;30.40;99.90
7129;DHT22;3606;52.930;8.644;2022-07-04T12:47:50;30.00;99.90
7129;DHT22;3606;52.930;8.644;2022-07-04T12:50:25;29.90;99.90
7129;DHT22;3606;52.930;8.644;2022-07-04T12:52:51;30.40;99.90
7129;DHT22;3606;52.930;8.644;2022-07-04T12:55:17;31.20;99.90
7129;DHT22;3606;52.930;8.644;2022-07-04T12:57:42;30.40;99.90
7129;DHT22;3606;52.930;8.644;2022-07-04T13:00:09;29.30;99.90
7129;DHT22;3606;52.930;8.644;2022-07-04T13:02:34;28.40;99.90
7129;DHT22;3606;52.930;8.644;2022-07-04T13:05:00;27.70;99.90
7129;DHT22;3606;52.930;8.644;2022-07-04T13:07:25;27.50;99.90
7129;DHT22;3606;52.930;8.644;2022-07-04T13:09:51;27.60;99.90
7129;DHT22;3606;52.930;8.644;2022-07-04T13:12:16;27.40;99.90
7129;DHT22;3606;52.930;8.644;2022-07-04T13:14:57;27.00;99.90
7129;DHT22;3606;52.930;8.644;2022-07-04T13:17:24;28.40;99.90
7129;DHT22;3606;52.930;8.644;2022-07-04T13:19:51;30.10;99.90
7129;DHT22;3606;52.930;8.644;2022-07-04T13:22:22;31.50;99.90
7129;DHT22;3606;52.930;8.644;2022-07-04T13:24:49;31.80;99.90
7129;DHT22;3606;52.930;8.644;2022-07-04T13:27:16;32.30;99.90
7129;DHT22;3606;52.930;8.644;2022-07-04T13:29:42;32.00;99.90
7129;DHT22;3606;52.930;8.644;2022-07-04T13:32:08;31.70;99.90
7129;DHT22;3606;52.930;8.644;2022-07-04T13:34:34;30.40;99.90
7129;DHT22;3606;52.930;8.644;2022-07-04T13:37:00;28.90;99.90
7129;DHT22;3606;52.930;8.644;2022-07-04T13:39:25;27.60;99.90
7129;DHT22;3606;52.930;8.644;2022-07-04T13:41:51;26.90;99.90
7129;DHT22;3606;52.930;8.644;2022-07-04T13:44:17;26.80;99.90
7129;DHT22;3606;52.930;8.644;2022-07-04T13:46:43;26.40;99.90
7129;DHT22;3606;52.930;8.644;2022-07-04T13:49:09;26.10;99.90
7129;DHT22;3606;52.930;8.644;2022-07-04T13:51:34;26.00;99.90
7129;DHT22;3606;52.930;8.644;2022-07-04T13:54:01;26.80;99.90
7129;DHT22;3606;52.930;8.644;2022-07-04T13:56:26;26.50;99.90
7129;DHT22;3606;52.930;8.644;2022-07-04T13:58:53;25.70;99.90
7129;DHT22;3606;52.930;8.644;2022-07-04T14:01:18;25.20;99.90
7129;DHT22;3606;52.930;8.644;2022-07-04T14:03:48;24.80;99.90
7129;DHT22;3606;52.930;8.644;2022-07-04T14:06:15;24.60;99.90
7129;DHT22;3606;52.930;8.644;2022-07-04T14:08:41;24.80;99.90
7129;DHT22;3606;52.930;8.644;2022-07-04T14:11:07;27.00;99.90
7129;DHT22;3606;52.930;8.644;2022-07-04T14:13:33;29.30;99.90
7129;DHT22;3606;52.930;8.644;2022-07-04T14:15:59;30.40;99.90
7129;DHT22;3606;52.930;8.644;2022-07-04T14:18:25;31.30;99.90
7129;DHT22;3606;52.930;8.644;2022-07-04T14:20:51;31.70;99.90
7129;DHT22;3606;52.930;8.644;2022-07-04T14:23:17;32.00;99.90
7129;DHT22;3606;52.930;8.644;2022-07-04T14:26:03;30.60;99.90
7129;DHT22;3606;52.930;8.644;2022-07-04T14:28:30;29.20;99.90
7129;DHT22;3606;52.930;8.644;2022-07-04T14:30:55;28.80;99.90
7129;DHT22;3606;52.930;8.644;2022-07-04T14:33:21;27.80;99.90
7129;DHT22;3606;52.930;8.644;2022-07-04T14:35:46;27.80;99.90
7129;DHT22;3606;52.930;8.644;2022-07-04T14:38:12;28.60;99.90
7129;DHT22;3606;52.930;8.644;2022-07-04T14:40:37;29.70;99.90
7129;DHT22;3606;52.930;8.644;2022-07-04T14:43:06;30.30;99.90
7129;DHT22;3606;52.930;8.644;2022-07-04T14:45:31;29.10;99.90
7129;DHT22;3606;52.930;8.644;2022-07-04T14:47:57;27.60;99.90
7129;DHT22;3606;52.930;8.644;2022-07-04T14:50:22;26.70;99.90
7129;DHT22;3606;52.930;8.644;2022-07-04T14:52:49;26.20;99.90
7129;DHT22;3606;52.930;8.644;2022-07-04T14:55:15;26.40;99.90
7129;DHT22;3606;52.930;8.644;2022-07-04T14:57:41;26.30;99.90
7129;DHT22;3606;52.930;8.644;2022-07-04T15:00:07;25.90;99.90
7129;DHT22;3606;52.930;8.644;2022-07-04T15:02:32;25.40;99.90
7129;DHT22;3606;52.930;8.644;2022-07-04T15:04:58;25.20;99.90
7129;DHT22;3606;52.930;8.644;2022-07-04T15:07:23;25.20;99.90
7129;DHT22;3606;52.930;8.644;2022-07-04T15:09:49;25.30;99.90
7129;DHT22;3606;52.930;8.644;2022-07-04T15:12:14;25.40;99.90
7129;DHT22;3606;52.930;8.644;2022-07-04T15:14:40;26.90;99.90
7129;DHT22;3606;52.930;8.644;2022-07-04T15:17:06;28.70;99.90
7129;DHT22;3606;52.930;8.644;2022-07-04T15:19:31;29.90;99.90
7129;DHT22;3606;52.930;8.644;2022-07-04T15:22:17;29.70;99.90
7129;DHT22;3606;52.930;8.644;2022-07-04T15:25:01;28.30;99.90
7129;DHT22;3606;52.930;8.644;2022-07-04T15:27:26;27.60;99.90
7129;DHT22;3606;52.930;8.644;2022-07-04T15:29:52;26.50;99.90
7129;DHT22;3606;52.930;8.644;2022-07-04T15:32:17;25.60;99.90
7129;DHT22;3606;52.930;8.644;2022-07-04T15:34:43;25.20;99.90
7129;DHT22;3606;52.930;8.644;2022-07-04T15:37:08;25.60;99.90
7129;DHT22;3606;52.930;8.644;2022-07-04T15:39:34;26.60;99.90
7129;DHT22;3606;52.930;8.644;2022-07-04T15:42:01;27.70;99.90
7129;DHT22;3606;52.930;8.644;2022-07-04T15:44:26;27.70;99.90
7129;DHT22;3606;52.930;8.644;2022-07-04T15:46:52;26.80;99.90
7129;DHT22;3606;52.930;8.644;2022-07-04T15:49:37;26.00;99.90
7129;DHT22;3606;52.930;8.644;2022-07-04T15:52:04;25.50;99.90
7129;DHT22;3606;52.930;8.644;2022-07-04T15:54:30;25.10;99.90
7129;DHT22;3606;52.930;8.644;2022-07-04T15:56:56;24.90;99.90
7129;DHT22;3606;52.930;8.644;2022-07-04T15:59:21;25.00;99.90
7129;DHT22;3606;52.930;8.644;2022-07-04T16:01:47;24.90;99.90
7129;DHT22;3606;52.930;8.644;2022-07-04T16:04:13;24.60;99.90
7129;DHT22;3606;52.930;8.644;2022-07-04T16:06:38;24.30;99.90
7129;DHT22;3606;52.930;8.644;2022-07-04T16:09:06;23.90;99.90
7129;DHT22;3606;52.930;8.644;2022-07-04T16:11:31;23.70;99.90
7129;DHT22;3606;52.930;8.644;2022-07-04T16:13:57;23.90;99.90
7129;DHT22;3606;52.930;8.644;2022-07-04T16:16:23;24.10;99.90
7129;DHT22;3606;52.930;8.644;2022-07-04T16:18:49;24.40;99.90
7129;DHT22;3606;52.930;8.644;2022-07-04T16:21:14;24.50;99.90
7129;DHT22;3606;52.930;8.644;2022-07-04T16:23:41;24.50;99.90
7129;DHT22;3606;52.930;8.644;2022-07-04T16:26:07;24.50;99.90
7129;DHT22;3606;52.930;8.644;2022-07-04T16:28:33;24.30;99.90
7129;DHT22;3606;52.930;8.644;2022-07-04T16:30:59;24.10;99.90
7129;DHT22;3606;52.930;8.644;2022-07-04T16:33:27;24.00;99.90
7129;DHT22;3606;52.930;8.644;2022-07-04T16:35:54;23.90;99.90
7129;DHT22;3606;52.930;8.644;2022-07-04T16:38:19;23.70;99.90